sensor_id;sensor_type;location;lat;lon;timestamp;temperature;humidity
18043;DHT22;9146;48.074;11.968;2024-02-15T00:02:11;6.20;99.90
18043;DHT22;9146;48.074;11.968;2024-02-15T00:04:37;6.30;99.90
18043;DHT22;9146;48.074;11.968;2024-02-15T00:07:06;6.30;99.90
18043;DHT22;9146;48.074;11.968;2024-02-15T00:09:33;6.30;99.90
18043;DHT22;9146;48.074;11.968;2024-02-15T00:12:00;6.30;99.90
18043;DHT22;9146;48.074;11.968;2024-02-15T00:14:27;6.20;99.90
18043;DHT22;9146;48.074;11.968;2024-02-15T00:16:54;6.20;99.90
18043;DHT22;9146;48.074;11.968;2024-02-15T00:19:21;6.30;99.90
18043;DHT22;9146;48.074;11.968;2024-02-15T00:21:48;6.20;99.90
18043;DHT22;9146;48.074;11.968;2024-02-15T00:24:16;6.20;99.90
18043;DHT22;9146;48.074;11.968;2024-02-15T00:26:43;6.20;99.90
18043;DHT22;9146;48.074;11.968;2024-02-15T00:29:10;6.20;99.90
18043;DHT22;9146;48.074;11.968;2024-02-15T00:31:38;6.20;99.90
18043;DHT22;9146;48.074;11.968;2024-02-15T00:34:05;6.20;99.90
18043;DHT22;9146;48.074;11.968;2024-02-15T00:36:32;6.20;99.90
18043;DHT22;9146;48.074;11.968;2024-02-15T00:38:59;6.20;99.90
18043;DHT22;9146;48.074;11.968;2024-02-15T00:41:27;6.10;99.90
18043;DHT22;9146;48.074;11.968;2024-02-15T00:43:54;6.10;99.90
18043;DHT22;9146;48.074;11.968;2024-02-15T00:46:21;6.10;99.90
18043;DHT22;9146;48.074;11.968;2024-02-15T00:48:48;6.10;99.90
18043;DHT22;9146;48.074;11.968;2024-02-15T00:51:15;6.10;99.90
18043;DHT22;9146;48.074;11.968;2024-02-15T00:53:41;6.10;99.90
18043;DHT22;9146;48.074;11.968;2024-02-15T00:56:08;6.00;99.90
18043;DHT22;9146;48.074;11.968;2024-02-15T00:58:37;6.00;99.90
18043;DHT22;9146;48.074;11.968;2024-02-15T01:01:03;6.10;99.90
18043;DHT22;9146;48.074;11.968;2024-02-15T01:03:30;6.00;99.90
18043;DHT22;9146;48.074;11.968;2024-02-15T01:05:57;6.10;99.90
18043;DHT22;9146;48.074;11.968;2024-02-15T01:08:24;6.00;99.90
18043;DHT22;9146;48.074;11.968;2024-02-15T01:10:51;6.00;99.90
18043;DHT22;9146;48.074;11.968;2024-02-15T01:13:19;6.00;99.90
18043;DHT22;9146;48.074;11.968;2024-02-15T01:15:47;6.00;99.90
18043;DHT22;9146;48.074;11.968;2024-02-15T01:18:14;6.00;99.90
18043;DHT22;9146;48.074;11.968;2024-02-15T01:20:41;6.00;99.90
18043;DHT22;9146;48.074;11.968;2024-02-15T01:23:08;6.00;99.90
18043;DHT22;9146;48.074;11.968;2024-02-15T01:25:35;6.00;99.90
18043;DHT22;9146;48.074;11.968;2024-02-15T01:28:02;6.00;99.90
18043;DHT22;9146;48.074;11.968;2024-02-15T01:30:29;6.00;99.90
18043;DHT22;9146;48.074;11.968;2024-02-15T01:32:58;6.00;99.90
18043;DHT22;9146;48.074;11.968;2024-02-15T01:35:27;6.00;99.90
18043;DHT22;9146;48.074;11.968;2024-02-15T01:37:54;5.90;99.90
18043;DHT22;9146;48.074;11.968;2024-02-15T01:40:21;5.90;99.90
18043;DHT22;9146;48.074;11.968;2024-02-15T01:42:48;5.90;99.90
18043;DHT22;9146;48.074;11.968;2024-02-15T01:45:15;5.90;99.90
18043;DHT22;9146;48.074;11.968;2024-02-15T01:47:42;5.90;99.90
18043;DHT22;9146;48.074;11.968;2024-02-15T01:50:12;5.90;99.90
18043;DHT22;9146;48.074;11.968;2024-02-15T01:52:40;5.90;99.90
18043;DHT22;9146;48.074;11.968;2024-02-15T01:55:08;5.90;99.90
18043;DHT22;9146;48.074;11.968;2024-02-15T01:57:36;5.90;99.90
18043;DHT22;9146;48.074;11.968;2024-02-15T02:00:05;5.90;99.90
18043;DHT22;9146;48.074;11.968;2024-02-15T02:02:34;5.90;99.90
18043;DHT22;9146;48.074;11.968;2024-02-15T02:05:02;5.90;99.90
18043;DHT22;9146;48.074;11.968;2024-02-15T02:07:30;5.90;99.90
18043;DHT22;9146;48.074;11.968;2024-02-15T02:09:57;5.80;99.90
18043;DHT22;9146;48.074;11.968;2024-02-15T02:12:24;5.80;99.90
18043;DHT22;9146;48.074;11.968;2024-02-15T02:14:53;5.80;99.90
18043;DHT22;9146;48.074;11.968;2024-02-15T02:17:20;5.80;99.90
18043;DHT22;9146;48.074;11.968;2024-02-15T02:19:47;5.80;99.90
18043;DHT22;9146;48.074;11.968;2024-02-15T02:22:16;5.80;99.90
18043;DHT22;9146;48.074;11.968;2024-02-15T02:25:02;5.80;99.90
18043;DHT22;9146;48.074;11.968;2024-02-15T02:27:32;5.80;99.90
18043;DHT22;9146;48.074;11.968;2024-02-15T02:29:59;5.80;99.90
18043;DHT22;9146;48.074;11.968;2024-02-15T02:32:26;5.80;99.90
18043;DHT22;9146;48.074;11.968;2024-02-15T02:34:53;5.80;99.90
18043;DHT22;9146;48.074;11.968;2024-02-15T02:37:23;5.80;99.90
18043;DHT22;9146;48.074;11.968;2024-02-15T02:39:49;5.80;99.90
18043;DHT22;9146;48.074;11.968;2024-02-15T02:42:18;5.80;99.90
18043;DHT22;9146;48.074;11.968;2024-02-15T02:44:45;5.90;99.90
18043;DHT22;9146;48.074;11.968;2024-02-15T02:47:11;5.80;99.90
18043;DHT22;9146;48.074;11.968;2024-02-15T02:49:38;5.90;99.90
18043;DHT22;9146;48.074;11.968;2024-02-15T02:52:06;5.90;99.90
18043;DHT22;9146;48.074;11.968;2024-02-15T02:54:33;5.90;99.90
18043;DHT22;9146;48.074;11.968;2024-02-15T02:57:00;6.00;99.90
18043;DHT22;9146;48.074;11.968;2024-02-15T02:59:28;6.00;99.90
18043;DHT22;9146;48.074;11.968;2024-02-15T03:01:56;6.00;99.90
18043;DHT22;9146;48.074;11.968;2024-02-15T03:04:22;6.10;99.90
18043;DHT22;9146;48.074;11.968;2024-02-15T03:06:49;6.10;99.90
18043;DHT22;9146;48.074;11.968;2024-02-15T03:09:17;6.10;99.90
18043;DHT22;9146;48.074;11.968;2024-02-15T03:11:46;6.10;99.90
18043;DHT22;9146;48.074;11.968;2024-02-15T03:14:13;6.20;99.90
18043;DHT22;9146;48.074;11.968;2024-02-15T03:16:41;6.20;99.90
18043;DHT22;9146;48.074;11.968;2024-02-15T03:19:08;6.20;99.90
18043;DHT22;9146;48.074;11.968;2024-02-15T03:21:37;6.20;99.90
18043;DHT22;9146;48.074;11.968;2024-02-15T03:24:04;6.20;99.90
18043;DHT22;9146;48.074;11.968;2024-02-15T03:26:32;6.20;99.90
18043;DHT22;9146;48.074;11.968;2024-02-15T03:29:02;6.30;99.90
18043;DHT22;9146;48.074;11.968;2024-02-15T03:31:28;6.20;99.90
18043;DHT22;9146;48.074;11.968;2024-02-15T03:33:57;6.30;99.90
18043;DHT22;9146;48.074;11.968;2024-02-15T03:36:25;6.20;99.90
18043;DHT22;9146;48.074;11.968;2024-02-15T03:38:52;6.20;99.90
18043;DHT22;9146;48.074;11.968;2024-02-15T03:41:19;6.20;99.90
18043;DHT22;9146;48.074;11.968;2024-02-15T03:43:46;6.20;99.90
18043;DHT22;9146;48.074;11.968;2024-02-15T03:46:13;6.20;99.90
18043;DHT22;9146;48.074;11.968;2024-02-15T03:48:42;6.20;99.90
18043;DHT22;9146;48.074;11.968;2024-02-15T03:51:16;6.20;99.90
18043;DHT22;9146;48.074;11.968;2024-02-15T03:53:44;6.20;99.90
18043;DHT22;9146;48.074;11.968;2024-02-15T03:56:10;6.20;99.90
18043;DHT22;9146;48.074;11.968;2024-02-15T03:58:38;6.20;99.90
18043;DHT22;9146;48.074;11.968;2024-02-15T04:01:05;6.20;99.90
18043;DHT22;9146;48.074;11.968;2024-02-15T04:03:32;6.10;99.90
18043;DHT22;9146;48.074;11.968;2024-02-15T04:05:59;6.10;99.90
18043;DHT22;9146;48.074;11.968;2024-02-15T04:08:28;6.10;99.90
18043;DHT22;9146;48.074;11.968;2024-02-15T04:10:55;6.10;99.90
18043;DHT22;9146;48.074;11.968;2024-02-15T04:13:23;6.00;99.90
18043;DHT22;9146;48.074;11.968;2024-02-15T04:15:50;6.00;99.90
18043;DHT22;9146;48.074;11.968;2024-02-15T04:18:19;6.00;99.90
18043;DHT22;9146;48.074;11.968;2024-02-15T04:20:46;6.00;99.90
18043;DHT22;9146;48.074;11.968;2024-02-15T04:23:14;6.00;99.90
18043;DHT22;9146;48.074;11.968;2024-02-15T04:25:42;6.00;99.90
18043;DHT22;9146;48.074;11.968;2024-02-15T04:28:16;6.00;99.90
18043;DHT22;9146;48.074;11.968;2024-02-15T04:30:43;6.00;99.90
18043;DHT22;9146;48.074;11.968;2024-02-15T04:33:10;6.00;99.90
18043;DHT22;9146;48.074;11.968;2024-02-15T04:35:38;6.00;99.90
18043;DHT22;9146;48.074;11.968;2024-02-15T04:38:06;6.00;99.90
18043;DHT22;9146;48.074;11.968;2024-02-15T04:40:34;6.00;99.90
18043;DHT22;9146;48.074;11.968;2024-02-15T04:43:02;6.00;99.90
18043;DHT22;9146;48.074;11.968;2024-02-15T04:45:29;6.00;99.90
18043;DHT22;9146;48.074;11.968;2024-02-15T04:47:57;5.90;99.90
18043;DHT22;9146;48.074;11.968;2024-02-15T04:50:27;6.00;99.90
18043;DHT22;9146;48.074;11.968;2024-02-15T04:52:55;5.90;99.90
18043;DHT22;9146;48.074;11.968;2024-02-15T04:55:22;5.90;99.90
18043;DHT22;9146;48.074;11.968;2024-02-15T04:57:49;5.90;99.90
18043;DHT22;9146;48.074;11.968;2024-02-15T05:00:22;5.90;99.90
18043;DHT22;9146;48.074;11.968;2024-02-15T05:02:51;5.90;99.90
18043;DHT22;9146;48.074;11.968;2024-02-15T05:05:19;5.90;99.90
18043;DHT22;9146;48.074;11.968;2024-02-15T05:07:47;5.90;99.90
18043;DHT22;9146;48.074;11.968;2024-02-15T05:10:14;5.80;99.90
18043;DHT22;9146;48.074;11.968;2024-02-15T05:12:42;5.80;99.90
18043;DHT22;9146;48.074;11.968;2024-02-15T05:15:10;5.80;99.90
18043;DHT22;9146;48.074;11.968;2024-02-15T05:17:40;5.80;99.90
18043;DHT22;9146;48.074;11.968;2024-02-15T05:20:10;5.70;99.90
18043;DHT22;9146;48.074;11.968;2024-02-15T05:22:39;5.60;99.90
18043;DHT22;9146;48.074;11.968;2024-02-15T05:25:09;5.60;99.90
18043;DHT22;9146;48.074;11.968;2024-02-15T05:27:38;5.50;99.90
18043;DHT22;9146;48.074;11.968;2024-02-15T05:30:05;5.50;99.90
18043;DHT22;9146;48.074;11.968;2024-02-15T05:32:33;5.50;99.90
18043;DHT22;9146;48.074;11.968;2024-02-15T05:35:08;5.40;99.90
18043;DHT22;9146;48.074;11.968;2024-02-15T05:37:35;5.40;99.90
18043;DHT22;9146;48.074;11.968;2024-02-15T05:40:02;5.40;99.90
18043;DHT22;9146;48.074;11.968;2024-02-15T05:42:30;5.30;99.90
18043;DHT22;9146;48.074;11.968;2024-02-15T05:45:27;5.30;99.90
18043;DHT22;9146;48.074;11.968;2024-02-15T05:47:55;5.30;99.90
18043;DHT22;9146;48.074;11.968;2024-02-15T05:50:24;5.20;99.90
18043;DHT22;9146;48.074;11.968;2024-02-15T05:52:53;5.10;99.90
18043;DHT22;9146;48.074;11.968;2024-02-15T05:55:20;5.10;99.90
18043;DHT22;9146;48.074;11.968;2024-02-15T05:57:48;4.90;99.90
18043;DHT22;9146;48.074;11.968;2024-02-15T06:00:15;5.10;99.90
18043;DHT22;9146;48.074;11.968;2024-02-15T06:02:43;4.80;99.90
18043;DHT22;9146;48.074;11.968;2024-02-15T06:05:10;4.80;99.90
18043;DHT22;9146;48.074;11.968;2024-02-15T06:07:38;4.70;99.90
18043;DHT22;9146;48.074;11.968;2024-02-15T06:10:06;4.60;99.90
18043;DHT22;9146;48.074;11.968;2024-02-15T06:12:33;4.60;99.90
18043;DHT22;9146;48.074;11.968;2024-02-15T06:17:30;4.60;99.90
18043;DHT22;9146;48.074;11.968;2024-02-15T06:19:57;4.50;99.90
18043;DHT22;9146;48.074;11.968;2024-02-15T06:22:24;4.50;99.90
18043;DHT22;9146;48.074;11.968;2024-02-15T06:24:54;4.40;99.90
18043;DHT22;9146;48.074;11.968;2024-02-15T06:27:20;4.40;99.90
18043;DHT22;9146;48.074;11.968;2024-02-15T06:29:49;4.30;99.90
18043;DHT22;9146;48.074;11.968;2024-02-15T06:32:34;4.30;99.90
18043;DHT22;9146;48.074;11.968;2024-02-15T06:35:18;4.20;99.90
18043;DHT22;9146;48.074;11.968;2024-02-15T06:38:03;4.20;99.90
18043;DHT22;9146;48.074;11.968;2024-02-15T06:40:49;4.20;99.90
18043;DHT22;9146;48.074;11.968;2024-02-15T06:43:16;4.20;99.90
18043;DHT22;9146;48.074;11.968;2024-02-15T06:45:42;4.20;99.90
18043;DHT22;9146;48.074;11.968;2024-02-15T06:48:12;4.20;99.90
18043;DHT22;9146;48.074;11.968;2024-02-15T06:50:39;4.20;99.90
18043;DHT22;9146;48.074;11.968;2024-02-15T06:53:06;4.30;99.90
18043;DHT22;9146;48.074;11.968;2024-02-15T06:55:34;4.30;99.90
18043;DHT22;9146;48.074;11.968;2024-02-15T06:58:04;4.40;99.90
18043;DHT22;9146;48.074;11.968;2024-02-15T07:00:31;4.50;99.90
18043;DHT22;9146;48.074;11.968;2024-02-15T07:02:58;4.50;99.90
18043;DHT22;9146;48.074;11.968;2024-02-15T07:05:25;4.50;99.90
18043;DHT22;9146;48.074;11.968;2024-02-15T07:07:53;4.60;99.90
18043;DHT22;9146;48.074;11.968;2024-02-15T07:12:49;4.80;99.90
18043;DHT22;9146;48.074;11.968;2024-02-15T07:15:17;4.80;99.90
18043;DHT22;9146;48.074;11.968;2024-02-15T07:17:45;4.90;99.90
18043;DHT22;9146;48.074;11.968;2024-02-15T07:20:12;4.90;99.90
18043;DHT22;9146;48.074;11.968;2024-02-15T07:22:42;5.00;99.90
18043;DHT22;9146;48.074;11.968;2024-02-15T07:25:10;5.10;99.90
18043;DHT22;9146;48.074;11.968;2024-02-15T07:27:37;5.20;99.90
18043;DHT22;9146;48.074;11.968;2024-02-15T07:32:35;5.30;99.90
18043;DHT22;9146;48.074;11.968;2024-02-15T07:35:03;5.50;99.90
18043;DHT22;9146;48.074;11.968;2024-02-15T07:37:30;5.50;99.90
18043;DHT22;9146;48.074;11.968;2024-02-15T07:39:58;5.60;99.90
18043;DHT22;9146;48.074;11.968;2024-02-15T07:42:25;5.70;99.90
18043;DHT22;9146;48.074;11.968;2024-02-15T07:44:52;5.80;99.90
18043;DHT22;9146;48.074;11.968;2024-02-15T07:47:19;5.80;99.90
18043;DHT22;9146;48.074;11.968;2024-02-15T07:49:51;5.90;99.90
18043;DHT22;9146;48.074;11.968;2024-02-15T07:52:18;6.00;99.90
18043;DHT22;9146;48.074;11.968;2024-02-15T07:54:44;6.10;99.90
18043;DHT22;9146;48.074;11.968;2024-02-15T07:57:12;6.10;99.90
18043;DHT22;9146;48.074;11.968;2024-02-15T07:59:39;6.20;99.90
18043;DHT22;9146;48.074;11.968;2024-02-15T08:02:05;6.30;99.90
18043;DHT22;9146;48.074;11.968;2024-02-15T08:04:32;6.30;99.90
18043;DHT22;9146;48.074;11.968;2024-02-15T08:07:01;6.30;99.90
18043;DHT22;9146;48.074;11.968;2024-02-15T08:09:28;6.40;99.90
18043;DHT22;9146;48.074;11.968;2024-02-15T08:11:55;6.40;99.90
18043;DHT22;9146;48.074;11.968;2024-02-15T08:16:49;6.50;99.90
18043;DHT22;9146;48.074;11.968;2024-02-15T08:19:16;6.60;99.90
18043;DHT22;9146;48.074;11.968;2024-02-15T08:21:43;6.60;99.90
18043;DHT22;9146;48.074;11.968;2024-02-15T08:24:13;6.70;99.90
18043;DHT22;9146;48.074;11.968;2024-02-15T08:26:40;6.80;99.90
18043;DHT22;9146;48.074;11.968;2024-02-15T08:29:07;6.90;99.90
18043;DHT22;9146;48.074;11.968;2024-02-15T08:31:35;6.90;99.90
18043;DHT22;9146;48.074;11.968;2024-02-15T08:34:02;7.00;99.90
18043;DHT22;9146;48.074;11.968;2024-02-15T08:36:31;6.90;99.90
18043;DHT22;9146;48.074;11.968;2024-02-15T08:38:58;7.00;99.90
18043;DHT22;9146;48.074;11.968;2024-02-15T08:41:27;7.10;99.90
18043;DHT22;9146;48.074;11.968;2024-02-15T08:43:54;7.20;99.90
18043;DHT22;9146;48.074;11.968;2024-02-15T08:46:23;7.30;99.90
18043;DHT22;9146;48.074;11.968;2024-02-15T08:48:52;7.30;99.90
18043;DHT22;9146;48.074;11.968;2024-02-15T08:51:19;7.40;99.90
18043;DHT22;9146;48.074;11.968;2024-02-15T08:53:46;7.50;99.90
18043;DHT22;9146;48.074;11.968;2024-02-15T08:56:13;7.50;99.90
18043;DHT22;9146;48.074;11.968;2024-02-15T08:58:42;7.60;99.90
18043;DHT22;9146;48.074;11.968;2024-02-15T09:01:09;7.70;99.90
18043;DHT22;9146;48.074;11.968;2024-02-15T09:03:36;7.80;99.90
18043;DHT22;9146;48.074;11.968;2024-02-15T09:06:04;7.90;99.90
18043;DHT22;9146;48.074;11.968;2024-02-15T09:08:33;7.90;99.90
18043;DHT22;9146;48.074;11.968;2024-02-15T09:10:59;8.00;99.90
18043;DHT22;9146;48.074;11.968;2024-02-15T09:13:26;8.10;99.90
18043;DHT22;9146;48.074;11.968;2024-02-15T09:15:55;8.20;99.90
18043;DHT22;9146;48.074;11.968;2024-02-15T09:18:21;8.30;99.90
18043;DHT22;9146;48.074;11.968;2024-02-15T09:20:49;8.30;99.90
18043;DHT22;9146;48.074;11.968;2024-02-15T09:23:21;8.40;99.90
18043;DHT22;9146;48.074;11.968;2024-02-15T09:25:49;8.50;99.90
18043;DHT22;9146;48.074;11.968;2024-02-15T09:28:17;8.50;99.90
18043;DHT22;9146;48.074;11.968;2024-02-15T09:30:47;8.60;99.90
18043;DHT22;9146;48.074;11.968;2024-02-15T09:33:19;8.70;99.90
18043;DHT22;9146;48.074;11.968;2024-02-15T09:35:45;8.70;99.90
18043;DHT22;9146;48.074;11.968;2024-02-15T09:38:15;8.80;99.90
18043;DHT22;9146;48.074;11.968;2024-02-15T09:40:48;8.90;99.90
18043;DHT22;9146;48.074;11.968;2024-02-15T09:43:16;9.00;99.90
18043;DHT22;9146;48.074;11.968;2024-02-15T09:45:43;9.10;99.90
18043;DHT22;9146;48.074;11.968;2024-02-15T09:48:10;9.10;99.90
18043;DHT22;9146;48.074;11.968;2024-02-15T09:50:42;9.20;99.90
18043;DHT22;9146;48.074;11.968;2024-02-15T09:53:13;9.30;99.90
18043;DHT22;9146;48.074;11.968;2024-02-15T09:55:42;9.40;99.90
18043;DHT22;9146;48.074;11.968;2024-02-15T09:58:09;9.40;99.90
18043;DHT22;9146;48.074;11.968;2024-02-15T10:00:38;9.50;99.90
18043;DHT22;9146;48.074;11.968;2024-02-15T10:03:06;9.50;99.90
18043;DHT22;9146;48.074;11.968;2024-02-15T10:05:33;9.60;99.90
18043;DHT22;9146;48.074;11.968;2024-02-15T10:08:03;9.70;99.90
18043;DHT22;9146;48.074;11.968;2024-02-15T10:10:30;9.70;99.90
18043;DHT22;9146;48.074;11.968;2024-02-15T10:12:59;9.70;99.90
18043;DHT22;9146;48.074;11.968;2024-02-15T10:15:31;9.80;99.90
18043;DHT22;9146;48.074;11.968;2024-02-15T10:18:01;9.80;99.90
18043;DHT22;9146;48.074;11.968;2024-02-15T10:20:28;9.90;99.90
18043;DHT22;9146;48.074;11.968;2024-02-15T10:23:10;10.00;99.90
18043;DHT22;9146;48.074;11.968;2024-02-15T10:25:38;10.10;99.90
18043;DHT22;9146;48.074;11.968;2024-02-15T10:28:06;10.10;99.90
18043;DHT22;9146;48.074;11.968;2024-02-15T10:30:34;10.20;99.90
18043;DHT22;9146;48.074;11.968;2024-02-15T10:33:01;10.20;99.90
18043;DHT22;9146;48.074;11.968;2024-02-15T10:35:28;10.20;99.90
18043;DHT22;9146;48.074;11.968;2024-02-15T10:38:05;10.30;99.90
18043;DHT22;9146;48.074;11.968;2024-02-15T10:40:34;10.30;99.90
18043;DHT22;9146;48.074;11.968;2024-02-15T10:43:03;10.30;99.90
18043;DHT22;9146;48.074;11.968;2024-02-15T10:45:31;10.30;99.90
18043;DHT22;9146;48.074;11.968;2024-02-15T10:47:58;10.40;99.90
18043;DHT22;9146;48.074;11.968;2024-02-15T10:50:25;10.50;99.90
18043;DHT22;9146;48.074;11.968;2024-02-15T10:52:55;10.60;99.90
18043;DHT22;9146;48.074;11.968;2024-02-15T10:55:29;10.60;99.90
18043;DHT22;9146;48.074;11.968;2024-02-15T10:58:02;10.70;99.90
18043;DHT22;9146;48.074;11.968;2024-02-15T11:00:32;10.80;99.90
18043;DHT22;9146;48.074;11.968;2024-02-15T11:03:04;10.80;99.90
18043;DHT22;9146;48.074;11.968;2024-02-15T11:05:33;10.90;99.90
18043;DHT22;9146;48.074;11.968;2024-02-15T11:08:03;11.00;99.90
18043;DHT22;9146;48.074;11.968;2024-02-15T11:10:32;11.10;99.90
18043;DHT22;9146;48.074;11.968;2024-02-15T11:13:01;11.10;99.90
18043;DHT22;9146;48.074;11.968;2024-02-15T11:15:41;11.10;99.90
18043;DHT22;9146;48.074;11.968;2024-02-15T11:18:11;11.20;99.90
18043;DHT22;9146;48.074;11.968;2024-02-15T11:20:49;11.20;99.90
18043;DHT22;9146;48.074;11.968;2024-02-15T11:23:25;11.30;99.90
18043;DHT22;9146;48.074;11.968;2024-02-15T11:25:53;11.40;99.90
18043;DHT22;9146;48.074;11.968;2024-02-15T11:28:44;11.50;99.90
18043;DHT22;9146;48.074;11.968;2024-02-15T11:34:42;11.70;99.90
18043;DHT22;9146;48.074;11.968;2024-02-15T11:37:09;11.80;99.90
18043;DHT22;9146;48.074;11.968;2024-02-15T11:39:59;11.80;99.90
18043;DHT22;9146;48.074;11.968;2024-02-15T11:42:28;11.90;99.90
18043;DHT22;9146;48.074;11.968;2024-02-15T11:45:05;11.90;99.90
18043;DHT22;9146;48.074;11.968;2024-02-15T11:47:37;12.00;99.90
18043;DHT22;9146;48.074;11.968;2024-02-15T11:50:05;12.10;99.90
18043;DHT22;9146;48.074;11.968;2024-02-15T11:52:38;12.20;99.90
18043;DHT22;9146;48.074;11.968;2024-02-15T11:55:06;12.30;99.90
18043;DHT22;9146;48.074;11.968;2024-02-15T11:57:36;12.40;99.90
18043;DHT22;9146;48.074;11.968;2024-02-15T12:00:21;12.40;99.90
18043;DHT22;9146;48.074;11.968;2024-02-15T12:03:06;12.50;99.90
18043;DHT22;9146;48.074;11.968;2024-02-15T12:05:50;12.60;99.90
18043;DHT22;9146;48.074;11.968;2024-02-15T12:08:35;12.70;99.90
18043;DHT22;9146;48.074;11.968;2024-02-15T12:11:19;12.80;99.90
18043;DHT22;9146;48.074;11.968;2024-02-15T12:14:04;12.80;99.90
18043;DHT22;9146;48.074;11.968;2024-02-15T12:17:00;12.90;99.90
18043;DHT22;9146;48.074;11.968;2024-02-15T12:19:45;13.00;99.90
18043;DHT22;9146;48.074;11.968;2024-02-15T12:22:14;13.10;99.90
18043;DHT22;9146;48.074;11.968;2024-02-15T12:24:41;13.10;99.90
18043;DHT22;9146;48.074;11.968;2024-02-15T12:27:08;13.10;99.90
18043;DHT22;9146;48.074;11.968;2024-02-15T12:29:35;13.20;99.90
18043;DHT22;9146;48.074;11.968;2024-02-15T12:32:04;13.20;99.90
18043;DHT22;9146;48.074;11.968;2024-02-15T12:34:31;13.30;99.90
18043;DHT22;9146;48.074;11.968;2024-02-15T12:37:07;13.30;99.90
18043;DHT22;9146;48.074;11.968;2024-02-15T12:39:35;13.40;99.90
18043;DHT22;9146;48.074;11.968;2024-02-15T12:42:02;13.40;99.90
18043;DHT22;9146;48.074;11.968;2024-02-15T12:44:35;13.40;99.90
18043;DHT22;9146;48.074;11.968;2024-02-15T12:47:03;13.40;99.90
18043;DHT22;9146;48.074;11.968;2024-02-15T12:49:32;13.50;99.90
18043;DHT22;9146;48.074;11.968;2024-02-15T12:52:35;13.50;99.90
18043;DHT22;9146;48.074;11.968;2024-02-15T12:55:12;13.60;99.90
18043;DHT22;9146;48.074;11.968;2024-02-15T12:57:40;13.60;99.90
18043;DHT22;9146;48.074;11.968;2024-02-15T13:00:11;13.60;99.90
18043;DHT22;9146;48.074;11.968;2024-02-15T13:02:45;13.70;99.90
18043;DHT22;9146;48.074;11.968;2024-02-15T13:05:14;13.70;99.90
18043;DHT22;9146;48.074;11.968;2024-02-15T13:07:44;13.70;99.90
18043;DHT22;9146;48.074;11.968;2024-02-15T13:10:11;13.80;99.90
18043;DHT22;9146;48.074;11.968;2024-02-15T13:12:40;13.80;99.90
18043;DHT22;9146;48.074;11.968;2024-02-15T13:15:10;13.80;99.90
18043;DHT22;9146;48.074;11.968;2024-02-15T13:17:40;13.90;99.90
18043;DHT22;9146;48.074;11.968;2024-02-15T13:20:10;13.90;99.90
18043;DHT22;9146;48.074;11.968;2024-02-15T13:22:39;14.00;99.90
18043;DHT22;9146;48.074;11.968;2024-02-15T13:25:07;14.00;99.90
18043;DHT22;9146;48.074;11.968;2024-02-15T13:27:35;14.10;99.90
18043;DHT22;9146;48.074;11.968;2024-02-15T13:30:04;14.10;99.90
18043;DHT22;9146;48.074;11.968;2024-02-15T13:32:35;14.10;99.90
18043;DHT22;9146;48.074;11.968;2024-02-15T13:35:03;14.00;99.90
18043;DHT22;9146;48.074;11.968;2024-02-15T13:37:40;14.00;99.90
18043;DHT22;9146;48.074;11.968;2024-02-15T13:40:09;14.00;99.90
18043;DHT22;9146;48.074;11.968;2024-02-15T13:42:41;14.00;99.90
18043;DHT22;9146;48.074;11.968;2024-02-15T13:45:12;14.00;99.90
18043;DHT22;9146;48.074;11.968;2024-02-15T13:47:40;13.90;99.90
18043;DHT22;9146;48.074;11.968;2024-02-15T13:50:08;13.90;99.90
18043;DHT22;9146;48.074;11.968;2024-02-15T13:52:35;13.90;99.90
18043;DHT22;9146;48.074;11.968;2024-02-15T13:55:04;14.00;99.90
18043;DHT22;9146;48.074;11.968;2024-02-15T13:57:32;13.90;99.90
18043;DHT22;9146;48.074;11.968;2024-02-15T13:59:58;13.90;99.90
18043;DHT22;9146;48.074;11.968;2024-02-15T14:02:25;13.90;99.90
18043;DHT22;9146;48.074;11.968;2024-02-15T14:04:53;13.90;99.90
18043;DHT22;9146;48.074;11.968;2024-02-15T14:07:20;13.90;99.90
18043;DHT22;9146;48.074;11.968;2024-02-15T14:09:47;13.90;99.90
18043;DHT22;9146;48.074;11.968;2024-02-15T14:12:16;14.00;99.90
18043;DHT22;9146;48.074;11.968;2024-02-15T14:14:42;14.00;99.90
18043;DHT22;9146;48.074;11.968;2024-02-15T14:17:09;14.00;99.90
18043;DHT22;9146;48.074;11.968;2024-02-15T14:19:36;14.00;99.90
18043;DHT22;9146;48.074;11.968;2024-02-15T14:22:04;14.00;99.90
18043;DHT22;9146;48.074;11.968;2024-02-15T14:24:34;13.90;99.90
18043;DHT22;9146;48.074;11.968;2024-02-15T14:27:02;13.90;99.90
18043;DHT22;9146;48.074;11.968;2024-02-15T14:29:31;13.90;99.90
18043;DHT22;9146;48.074;11.968;2024-02-15T14:32:00;13.80;99.90
18043;DHT22;9146;48.074;11.968;2024-02-15T14:34:45;13.80;99.90
18043;DHT22;9146;48.074;11.968;2024-02-15T14:37:12;13.70;99.90
18043;DHT22;9146;48.074;11.968;2024-02-15T14:39:39;13.70;99.90
18043;DHT22;9146;48.074;11.968;2024-02-15T14:42:06;13.70;99.90
18043;DHT22;9146;48.074;11.968;2024-02-15T14:44:34;13.60;99.90
18043;DHT22;9146;48.074;11.968;2024-02-15T14:47:02;13.60;99.90
18043;DHT22;9146;48.074;11.968;2024-02-15T14:49:29;13.60;99.90
18043;DHT22;9146;48.074;11.968;2024-02-15T14:51:56;13.50;99.90
18043;DHT22;9146;48.074;11.968;2024-02-15T14:54:23;13.50;99.90
18043;DHT22;9146;48.074;11.968;2024-02-15T14:56:50;13.50;99.90
18043;DHT22;9146;48.074;11.968;2024-02-15T15:01:46;13.50;99.90
18043;DHT22;9146;48.074;11.968;2024-02-15T15:06:44;13.40;99.90
18043;DHT22;9146;48.074;11.968;2024-02-15T15:09:30;13.50;99.90
18043;DHT22;9146;48.074;11.968;2024-02-15T15:12:23;13.50;99.90
18043;DHT22;9146;48.074;11.968;2024-02-15T15:15:08;13.50;99.90
18043;DHT22;9146;48.074;11.968;2024-02-15T15:17:39;13.40;99.90
18043;DHT22;9146;48.074;11.968;2024-02-15T15:20:09;13.40;99.90
18043;DHT22;9146;48.074;11.968;2024-02-15T15:22:36;13.40;99.90
18043;DHT22;9146;48.074;11.968;2024-02-15T15:25:04;13.40;99.90
18043;DHT22;9146;48.074;11.968;2024-02-15T15:27:31;13.40;99.90
18043;DHT22;9146;48.074;11.968;2024-02-15T15:29:59;13.30;99.90
18043;DHT22;9146;48.074;11.968;2024-02-15T15:32:26;13.30;99.90
18043;DHT22;9146;48.074;11.968;2024-02-15T15:34:54;13.20;99.90
18043;DHT22;9146;48.074;11.968;2024-02-15T15:37:21;13.20;99.90
18043;DHT22;9146;48.074;11.968;2024-02-15T15:39:48;13.20;99.90
18043;DHT22;9146;48.074;11.968;2024-02-15T15:42:16;13.10;99.90
18043;DHT22;9146;48.074;11.968;2024-02-15T15:44:45;13.10;99.90
18043;DHT22;9146;48.074;11.968;2024-02-15T15:47:13;13.00;99.90
18043;DHT22;9146;48.074;11.968;2024-02-15T15:49:40;13.00;99.90
18043;DHT22;9146;48.074;11.968;2024-02-15T15:52:08;12.90;99.90
18043;DHT22;9146;48.074;11.968;2024-02-15T15:54:35;12.80;99.90
18043;DHT22;9146;48.074;11.968;2024-02-15T15:57:03;12.70;99.90
18043;DHT22;9146;48.074;11.968;2024-02-15T15:59:30;12.70;99.90
18043;DHT22;9146;48.074;11.968;2024-02-15T16:01:57;12.60;99.90
18043;DHT22;9146;48.074;11.968;2024-02-15T16:04:24;12.50;99.90
18043;DHT22;9146;48.074;11.968;2024-02-15T16:09:20;12.20;99.90
18043;DHT22;9146;48.074;11.968;2024-02-15T16:11:48;12.10;99.90
18043;DHT22;9146;48.074;11.968;2024-02-15T16:14:18;11.90;99.90